Time;durP1;ratioP1;P1;durP2;ratioP2;P2;SDS_P1;SDS_P2;PMS_P1;PMS_P2;Temp;Humidity;BMP_temperature;BMP_pressure;BME280_temperature;BME280_humidity;BME280_pressure;Samples;Min_cycle;Max_cycle;Signal;HPM_P1;HPM_P2
2022/01/17 00:01:36;;;;;;;11.48;10.82;;;;;;;-3.08;83.83;100752.56;5014374;28;20467;-69
2022/01/17 00:04:01;;;;;;;10.55;10.02;;;;;;;-2.97;84.36;100761.50;5013318;28;20410;-68
2022/01/17 00:06:27;;;;;;;11.38;10.73;;;;;;;-3.02;84.22;100756.56;5021287;28;20026;-68
2022/01/17 00:08:53;;;;;;;10.73;10.13;;;;;;;-3.06;84.73;100753.31;5007564;28;20076;-68
2022/01/17 00:11:19;;;;;;;10.75;10.25;;;;;;;-3.01;84.84;100755.66;5008407;28;20042;-68
2022/01/17 00:13:47;;;;;;;10.68;10.07;;;;;;;-2.92;84.55;100749.13;4992492;28;20596;-68
2022/01/17 00:16:18;;;;;;;10.00;9.50;;;;;;;-2.81;84.42;100750.19;5011706;28;20038;-68
2022/01/17 00:21:11;;;;;;;10.50;9.90;;;;;;;-2.89;84.31;100736.81;5011603;28;20036;-68
2022/01/17 00:23:36;;;;;;;10.65;10.05;;;;;;;-3.02;85.43;100742.75;5006848;28;20019;-67
2022/01/17 00:26:04;;;;;;;10.02;9.50;;;;;;;-2.88;85.40;100740.25;5010537;28;20046;-68
2022/01/17 00:28:33;;;;;;;10.02;9.52;;;;;;;-3.10;86.50;100730.19;5009387;28;20481;-68
2022/01/17 00:31:04;;;;;;;10.63;10.07;;;;;;;-3.10;85.94;100733.63;5012681;28;20112;-69
2022/01/17 00:33:33;;;;;;;10.55;10.02;;;;;;;-3.18;87.36;100727.16;5010932;28;20105;-69
2022/01/17 00:35:59;;;;;;;10.70;10.10;;;;;;;-3.01;86.74;100729.72;5001187;28;20079;-69
2022/01/17 00:38:24;;;;;;;10.32;9.73;;;;;;;-3.11;87.09;100731.94;5012188;28;20025;-68
2022/01/17 00:40:50;;;;;;;11.75;11.00;;;;;;;-3.18;87.62;100727.16;5014920;28;20175;-67
2022/01/17 00:43:15;;;;;;;10.82;10.23;;;;;;;-3.06;87.53;100740.34;5016236;28;20037;-68
2022/01/17 00:45:43;;;;;;;11.40;10.70;;;;;;;-3.04;87.32;100729.88;4997153;28;20034;-68
2022/01/17 00:48:09;;;;;;;10.40;9.90;;;;;;;-2.91;87.34;100724.84;4997355;28;20025;-68
2022/01/17 00:50:39;;;;;;;10.38;9.85;;;;;;;-3.09;88.28;100727.50;5016441;28;20500;-68
2022/01/17 00:53:05;;;;;;;11.20;10.50;;;;;;;-2.96;87.42;100729.44;5013009;28;20045;-68
2022/01/17 00:55:32;;;;;;;10.68;10.07;;;;;;;-2.97;87.55;100722.59;4998321;28;20488;-68
2022/01/17 00:57:58;;;;;;;10.23;9.63;;;;;;;-3.00;87.80;100718.41;4999671;28;20483;-68
2022/01/17 01:00:24;;;;;;;11.40;10.70;;;;;;;-2.96;88.21;100706.91;5009542;28;20032;-69
2022/01/17 01:02:50;;;;;;;11.10;10.40;;;;;;;-3.02;88.67;100711.59;4993990;28;20022;-68
2022/01/17 01:05:16;;;;;;;10.35;9.77;;;;;;;-3.00;88.82;100709.78;5014017;28;20040;-69
2022/01/17 01:07:42;;;;;;;10.23;9.73;;;;;;;-2.99;88.05;100701.91;5014676;28;20136;-69
2022/01/17 01:10:10;;;;;;;11.55;10.82;;;;;;;-2.99;88.35;100694.13;5013087;28;20034;-68
2022/01/17 01:12:48;;;;;;;11.45;10.70;;;;;;;-3.04;89.21;100696.13;5003471;28;20034;-68
2022/01/17 01:15:22;;;;;;;10.63;10.02;;;;;;;-3.04;89.37;100685.75;5000611;28;20038;-68
2022/01/17 01:17:56;;;;;;;10.73;10.13;;;;;;;-2.92;88.65;100679.06;5007067;28;20125;-69
2022/01/17 01:28:21;;;;;;;11.02;10.43;;;;;;;-3.41;92.07;100638.44;5013263;28;20045;-68
2022/01/17 01:30:50;;;;;;;10.57;10.07;;;;;;;-3.27;91.88;100642.91;5014239;28;20026;-68
2022/01/17 01:33:23;;;;;;;10.38;9.88;;;;;;;-3.34;92.41;100644.97;5007580;28;20041;-68
2022/01/17 01:35:50;;;;;;;10.80;10.20;;;;;;;-3.22;92.01;100642.66;5013861;28;20052;-67
2022/01/17 01:38:15;;;;;;;10.75;10.25;;;;;;;-3.32;92.08;100642.31;5013919;28;20026;-68
2022/01/17 01:40:41;;;;;;;10.85;10.25;;;;;;;-3.19;92.24;100645.91;5012187;28;20033;-67
2022/01/17 01:43:06;;;;;;;10.48;9.88;;;;;;;-3.29;91.91;100643.91;5014154;28;20026;-67
2022/01/17 01:45:32;;;;;;;9.98;9.48;;;;;;;-3.30;93.01;100650.84;5013844;28;20092;-68
2022/01/17 01:47:58;;;;;;;10.40;9.90;;;;;;;-3.41;93.68;100642.81;5013633;28;20030;-67
2022/01/17 01:50:23;;;;;;;11.18;10.50;;;;;;;-3.36;94.20;100641.66;5011748;28;20484;-68
2022/01/17 01:52:49;;;;;;;10.98;10.38;;;;;;;-3.44;93.62;100628.25;5011164;28;20037;-68
2022/01/17 01:55:21;;;;;;;10.05;9.55;;;;;;;-3.28;93.02;100632.63;5009164;28;20373;-67
2022/01/17 01:57:48;;;;;;;10.18;9.65;;;;;;;-3.35;93.62;100621.72;5010741;28;20443;-69
2022/01/17 02:00:15;;;;;;;11.13;10.52;;;;;;;-3.73;93.82;100556.41;5012497;28;20049;-68
2022/01/17 02:02:41;;;;;;;10.23;9.73;;;;;;;-3.33;93.23;100607.75;5009789;28;20030;-67
2022/01/17 02:05:07;;;;;;;10.05;9.55;;;;;;;-3.30;93.55;100627.50;5013841;28;20137;-68
2022/01/17 02:07:33;;;;;;;10.68;10.07;;;;;;;-3.36;93.68;100613.13;5009782;28;20433;-68
2022/01/17 02:09:58;;;;;;;10.68;10.07;;;;;;;-3.35;94.22;100614.78;5011314;28;20026;-68
2022/01/17 02:12:28;;;;;;;10.68;10.07;;;;;;;-3.36;94.38;100588.94;5017711;28;20033;-68
2022/01/17 02:14:56;;;;;;;10.65;10.05;;;;;;;-3.40;94.42;100592.59;5016692;28;20029;-68
2022/01/17 02:17:24;;;;;;;10.38;9.80;;;;;;;-3.38;95.35;100598.53;5009128;28;20439;-69
2022/01/17 02:19:57;;;;;;;10.63;10.02;;;;;;;-3.41;95.26;100598.72;5013345;28;20156;-68
2022/01/17 02:22:23;;;;;;;10.02;9.52;;;;;;;-3.41;94.67;100604.75;5014508;28;20511;-68
2022/01/17 02:24:48;;;;;;;10.85;10.25;;;;;;;-3.44;94.82;100601.50;5012087;28;20053;-67
2022/01/17 02:27:14;;;;;;;10.63;10.02;;;;;;;-3.46;95.62;100605.91;5012345;28;20050;-69
2022/01/17 02:29:42;;;;;;;10.60;10.00;;;;;;;-3.52;95.99;100601.06;5004641;28;20045;-68
2022/01/17 02:32:07;;;;;;;10.40;9.90;;;;;;;-3.51;95.58;100597.56;4996947;28;20367;-68
2022/01/17 02:34:39;;;;;;;10.68;10.07;;;;;;;-3.40;95.90;100595.19;5009671;28;20061;-68
2022/01/17 02:37:05;;;;;;;10.57;9.98;;;;;;;-3.35;95.80;100594.03;5010867;28;20496;-69
2022/01/17 02:39:30;;;;;;;10.75;10.15;;;;;;;-3.38;95.57;100602.00;5027907;28;20041;-69
2022/01/17 02:42:00;;;;;;;10.32;9.80;;;;;;;-3.29;95.35;100590.28;4983118;28;20037;-67
2022/01/17 02:44:26;;;;;;;9.80;9.30;;;;;;;-3.36;94.47;100588.94;5009322;28;20048;-69
2022/01/17 02:46:51;;;;;;;10.40;9.80;;;;;;;-3.50;95.27;100591.44;5026452;28;20030;-68
2022/01/17 02:49:17;;;;;;;10.02;9.52;;;;;;;-3.58;96.38;100591.03;5013245;28;20037;-68
2022/01/17 02:51:47;;;;;;;10.57;9.98;;;;;;;-3.43;96.26;100590.19;5006803;28;20069;-68
2022/01/17 02:54:12;;;;;;;10.05;9.55;;;;;;;-3.52;96.05;100588.09;5011228;28;20034;-69
2022/01/17 02:56:38;;;;;;;10.20;9.70;;;;;;;-3.38;95.44;100588.16;5013576;28;20021;-69
2022/01/17 02:59:04;;;;;;;10.35;9.80;;;;;;;-3.54;96.44;100588.16;5014354;28;20033;-68
2022/01/17 03:01:30;;;;;;;10.32;9.77;;;;;;;-3.62;96.57;100575.63;4994475;28;20120;-68
2022/01/17 03:03:57;;;;;;;10.68;10.07;;;;;;;-3.39;96.59;100595.09;5005248;28;20065;-68
2022/01/17 03:06:23;;;;;;;10.20;9.70;;;;;;;-3.52;96.86;100604.50;4988756;28;20022;-68
2022/01/17 03:08:50;;;;;;;10.15;9.65;;;;;;;-3.51;97.10;100592.38;4995359;28;20117;-69
2022/01/17 03:11:20;;;;;;;10.93;10.32;;;;;;;-3.55;97.39;100599.47;5008521;28;20118;-69
2022/01/17 03:13:47;;;;;;;10.35;9.82;;;;;;;-3.38;97.22;100591.63;4991445;28;20032;-68
2022/01/17 03:16:16;;;;;;;10.20;9.70;;;;;;;-3.45;96.26;100587.69;5008987;28;20030;-69
2022/01/17 03:18:44;;;;;;;10.52;9.93;;;;;;;-3.34;96.53;100594.88;5010855;28;20026;-69
2022/01/17 03:21:12;;;;;;;10.90;10.25;;;;;;;-3.36;97.37;100586.34;5012144;28;20076;-68
2022/01/17 03:23:39;;;;;;;10.70;10.10;;;;;;;-3.25;97.32;100585.72;5004932;28;20022;-67
2022/01/17 03:26:05;;;;;;;11.05;10.38;;;;;;;-3.11;96.07;100584.03;5010552;28;20053;-68
2022/01/17 03:28:31;;;;;;;10.82;10.18;;;;;;;-3.40;97.42;100583.06;5011117;28;20485;-68
2022/01/17 03:30:58;;;;;;;10.20;9.60;;;;;;;-3.41;98.40;100571.03;5015095;28;20026;-68
2022/01/17 03:33:24;;;;;;;10.40;9.80;;;;;;;-3.27;98.47;100569.44;5011237;28;20061;-68
2022/01/17 03:35:52;;;;;;;9.85;9.35;;;;;;;-3.31;99.13;100560.13;5011795;28;20061;-68
2022/01/17 03:38:20;;;;;;;10.10;9.60;;;;;;;-3.54;99.09;100548.44;5010428;28;20160;-67
2022/01/17 03:40:47;;;;;;;10.13;9.63;;;;;;;-3.43;99.74;100561.66;5008924;28;20509;-68
2022/01/17 03:43:13;;;;;;;10.68;10.07;;;;;;;-3.48;100.00;100558.47;4998356;28;20109;-68
2022/01/17 03:45:39;;;;;;;9.98;9.48;;;;;;;-3.45;99.80;100564.34;5005798;28;20025;-68
2022/01/17 03:48:05;;;;;;;11.35;10.65;;;;;;;-3.35;100.00;100560.31;5008609;28;20037;-68
2022/01/17 03:50:30;;;;;;;10.63;10.02;;;;;;;-3.21;99.41;100556.13;5009350;28;20025;-67
2022/01/17 03:52:56;;;;;;;9.98;9.48;;;;;;;-3.13;98.45;100548.75;5008728;28;20083;-67
2022/01/17 03:55:23;;;;;;;10.10;9.60;;;;;;;-3.20;99.05;100543.06;5006824;28;20041;-68
2022/01/17 03:57:50;;;;;;;10.18;9.68;;;;;;;-3.32;100.00;100543.72;5011722;28;20034;-68
2022/01/17 04:00:20;;;;;;;11.10;10.40;;;;;;;-3.42;100.00;100543.41;4990572;28;20038;-67
2022/01/17 04:02:47;;;;;;;10.85;10.25;;;;;;;-3.43;100.00;100541.75;5004249;28;20065;-68
2022/01/17 04:05:13;;;;;;;10.65;10.05;;;;;;;-3.48;100.00;100538.56;5007296;28;20037;-68
2022/01/17 04:07:39;;;;;;;10.35;9.82;;;;;;;-3.50;100.00;100524.03;4998783;28;20025;-68
2022/01/17 04:10:05;;;;;;;10.75;10.15;;;;;;;-3.59;100.00;100521.94;5010603;28;20105;-67
2022/01/17 04:12:31;;;;;;;10.82;10.23;;;;;;;-3.61;100.00;100519.41;5018941;28;20037;-68
2022/01/17 04:14:57;;;;;;;10.30;9.80;;;;;;;-3.52;100.00;100524.13;4993588;28;20041;-68
2022/01/17 04:17:27;;;;;;;10.30;9.80;;;;;;;-3.65;100.00;100528.31;5013528;28;20029;-68
2022/01/17 04:19:59;;;;;;;10.18;9.68;;;;;;;-3.69;100.00;100485.31;5015673;28;20040;-67
2022/01/17 04:22:25;;;;;;;10.52;9.93;;;;;;;-3.53;100.00;100504.28;5011243;28;20022;-68
2022/01/17 04:24:51;;;;;;;10.40;9.80;;;;;;;-3.56;100.00;100529.53;5013849;28;20401;-67
2022/01/17 04:27:16;;;;;;;10.57;9.98;;;;;;;-3.74;100.00;100516.69;5008479;28;20050;-67
2022/01/17 04:29:44;;;;;;;10.68;10.07;;;;;;;-3.66;100.00;100509.31;5008239;28;20512;-67
2022/01/17 04:32:13;;;;;;;11.25;10.60;;;;;;;-3.66;100.00;100505.91;5023916;28;20045;-67
2022/01/17 04:34:38;;;;;;;11.88;11.07;;;;;;;-3.56;100.00;100509.63;5008748;28;20029;-69
2022/01/17 04:37:04;;;;;;;11.77;11.07;;;;;;;-3.53;100.00;100514.63;5009926;28;20083;-68
2022/01/17 04:39:29;;;;;;;10.45;9.95;;;;;;;-3.62;100.00;100508.22;5014301;28;20116;-70
2022/01/17 04:41:56;;;;;;;11.30;10.60;;;;;;;-3.71;100.00;100505.31;5015132;28;20038;-68
2022/01/17 04:47:06;;;;;;;11.02;10.43;;;;;;;-3.87;100.00;100513.09;5020930;28;20115;-69
2022/01/17 04:49:31;;;;;;;11.18;10.50;;;;;;;-3.83;100.00;100511.97;5009670;28;20030;-68
2022/01/17 04:51:57;;;;;;;11.38;10.70;;;;;;;-3.94;100.00;100501.38;5010351;28;20088;-68
2022/01/17 04:56:57;;;;;;;12.20;11.50;;;;;;;-3.82;100.00;100513.66;5014880;28;20052;-68
2022/01/17 04:59:22;;;;;;;11.52;10.93;;;;;;;-3.80;100.00;100509.25;5013780;28;20037;-68
2022/01/17 05:01:48;;;;;;;13.00;12.18;;;;;;;-3.80;100.00;100522.19;5009697;28;20026;-69
2022/01/17 05:04:13;;;;;;;11.45;10.85;;;;;;;-3.88;100.00;100519.19;5003234;28;20030;-68
2022/01/17 05:06:38;;;;;;;13.05;12.15;;;;;;;-3.90;100.00;100505.47;5010772;28;20408;-68
2022/01/17 05:09:04;;;;;;;12.15;11.43;;;;;;;-3.77;100.00;100516.00;5011809;28;20108;-68
2022/01/17 05:11:31;;;;;;;11.25;10.65;;;;;;;-3.91;100.00;100520.16;5003895;28;20041;-68
2022/01/17 05:13:59;;;;;;;12.38;11.60;;;;;;;-3.85;100.00;100513.84;5011358;28;20035;-68
2022/01/17 05:16:33;;;;;;;11.45;10.85;;;;;;;-3.64;100.00;100514.41;5009751;28;20034;-65
2022/01/17 05:21:43;;;;;;;10.95;10.35;;;;;;;-3.59;100.00;100509.00;5005201;28;20088;-64
2022/01/17 05:24:08;;;;;;;12.05;11.27;;;;;;;-3.44;100.00;100514.16;5013313;28;20026;-65
2022/01/17 05:26:34;;;;;;;11.25;10.65;;;;;;;-3.58;100.00;100513.25;5012751;28;20061;-65
2022/01/17 05:29:02;;;;;;;11.25;10.63;;;;;;;-3.58;100.00;100508.91;5017652;28;20453;-65
2022/01/17 05:31:27;;;;;;;12.60;11.73;;;;;;;-3.52;100.00;100510.31;4997584;28;20088;-64
2022/01/17 05:33:53;;;;;;;11.15;10.50;;;;;;;-3.64;100.00;100497.09;5013904;28;20025;-64
2022/01/17 05:36:21;;;;;;;10.57;10.00;;;;;;;-3.61;100.00;100516.81;5015195;28;20112;-64
2022/01/17 05:38:46;;;;;;;12.25;11.45;;;;;;;-3.62;100.00;100510.81;5016152;28;20034;-65
2022/01/17 05:41:12;;;;;;;11.02;10.43;;;;;;;-3.57;100.00;100504.53;4999959;28;20373;-65
2022/01/17 05:43:37;;;;;;;11.68;10.98;;;;;;;-3.64;100.00;100509.22;5011105;28;20041;-64
2022/01/17 05:46:03;;;;;;;10.98;10.38;;;;;;;-3.77;100.00;100506.47;5015043;28;20060;-67
2022/01/17 05:48:28;;;;;;;11.35;10.68;;;;;;;-3.59;100.00;100503.81;5013455;28;20038;-67
2022/01/17 05:50:54;;;;;;;11.30;10.60;;;;;;;-3.47;100.00;100506.53;5013440;28;20045;-68
2022/01/17 05:53:19;;;;;;;11.27;10.60;;;;;;;-3.58;100.00;100508.06;4992536;28;20547;-68
2022/01/17 05:55:45;;;;;;;10.93;10.23;;;;;;;-3.57;100.00;100513.16;5007876;28;20374;-69
2022/01/17 05:58:13;;;;;;;11.55;10.82;;;;;;;-3.51;100.00;100517.19;4999874;28;20512;-67
2022/01/17 06:00:39;;;;;;;12.20;11.35;;;;;;;-3.47;100.00;100503.94;5008835;28;20029;-67
2022/01/17 06:03:04;;;;;;;10.30;9.70;;;;;;;-3.50;100.00;100509.31;5011769;28;20130;-67
2022/01/17 06:05:30;;;;;;;10.60;10.00;;;;;;;-3.38;100.00;100503.44;5005033;28;20026;-67
2022/01/17 06:07:55;;;;;;;10.95;10.27;;;;;;;-3.36;100.00;100495.56;4986845;28;20444;-67
2022/01/17 06:10:21;;;;;;;11.98;11.18;;;;;;;-3.38;100.00;100492.19;4997748;28;20041;-67
2022/01/17 06:12:46;;;;;;;11.38;10.57;;;;;;;-3.36;100.00;100487.78;4994818;28;20036;-67
2022/01/17 06:15:12;;;;;;;12.80;11.82;;;;;;;-3.28;100.00;100492.53;5001724;28;20060;-67
2022/01/17 06:17:38;;;;;;;10.45;9.85;;;;;;;-3.24;100.00;100496.59;5007513;28;20022;-67
2022/01/17 06:20:07;;;;;;;9.82;9.32;;;;;;;-3.13;100.00;100486.47;4995323;28;20564;-68
2022/01/17 06:22:33;;;;;;;10.80;10.13;;;;;;;-3.12;100.00;100485.53;5010277;28;20087;-67
2022/01/17 06:24:58;;;;;;;10.35;9.75;;;;;;;-2.98;100.00;100488.16;5019572;28;20400;-67
2022/01/17 06:27:24;;;;;;;10.63;10.02;;;;;;;-3.02;100.00;100484.06;5020214;28;20038;-67
2022/01/17 06:29:51;;;;;;;10.95;10.25;;;;;;;-2.99;100.00;100470.94;5011886;28;20519;-68
2022/01/17 06:32:17;;;;;;;11.32;10.55;;;;;;;-2.82;100.00;100462.16;5007928;28;20030;-67
2022/01/17 06:34:43;;;;;;;10.30;9.70;;;;;;;-2.58;100.00;100465.84;5014151;28;20052;-66
2022/01/17 06:37:11;;;;;;;10.00;9.40;;;;;;;-2.13;100.00;100453.63;5008970;28;20109;-66
2022/01/17 06:39:36;;;;;;;10.27;9.68;;;;;;;-1.44;95.20;100455.25;5012187;28;20079;-66
2022/01/17 06:42:04;;;;;;;10.85;10.15;;;;;;;-1.79;96.63;100451.47;5013864;28;20113;-66
2022/01/17 06:44:29;;;;;;;10.10;9.50;;;;;;;-1.98;97.47;100444.84;5012335;28;20080;-67
2022/01/17 06:46:55;;;;;;;9.27;8.80;;;;;;;-1.89;96.36;100450.41;5011133;28;20042;-67
2022/01/17 06:49:20;;;;;;;9.60;9.10;;;;;;;-2.10;96.38;100431.78;5012618;28;20160;-67
2022/01/17 06:51:46;;;;;;;9.30;8.80;;;;;;;-1.91;96.00;100447.03;5011564;28;20021;-66
2022/01/17 06:54:11;;;;;;;10.43;9.80;;;;;;;-2.22;95.66;100454.16;4991072;28;20113;-67
2022/01/17 06:56:43;;;;;;;10.48;9.85;;;;;;;-2.36;96.23;100459.38;5002045;28;20485;-67
2022/01/17 06:59:11;;;;;;;10.25;9.65;;;;;;;-2.24;94.78;100430.03;5021659;28;20034;-66
2022/01/17 07:01:38;;;;;;;10.43;9.82;;;;;;;-2.32;93.87;100424.50;5010595;28;20037;-67
2022/01/17 07:04:05;;;;;;;10.27;9.68;;;;;;;-2.24;93.86;100404.88;5002922;28;20034;-67
2022/01/17 07:06:31;;;;;;;11.52;10.73;;;;;;;-2.12;93.63;100398.09;5010139;28;20036;-67
2022/01/17 07:08:56;;;;;;;10.23;9.63;;;;;;;-2.06;92.71;100400.28;5012750;28;20026;-67
2022/01/17 07:11:22;;;;;;;10.70;10.05;;;;;;;-1.90;92.31;100387.16;5011477;28;20074;-67
2022/01/17 07:13:47;;;;;;;10.90;10.20;;;;;;;-1.63;92.56;100374.13;5011881;28;20079;-66
2022/01/17 07:16:13;;;;;;;10.27;9.68;;;;;;;-1.36;90.94;100353.25;5011914;28;20030;-68
2022/01/17 07:18:38;;;;;;;9.93;9.32;;;;;;;-1.39;92.04;100366.50;5011838;28;20044;-66
2022/01/17 07:21:04;;;;;;;9.85;9.25;;;;;;;-1.09;91.58;100383.59;5009630;28;20038;-67
2022/01/17 07:23:29;;;;;;;9.52;9.02;;;;;;;0.29;84.79;100406.81;5010912;28;20030;-68
2022/01/17 07:25:55;;;;;;;9.35;8.85;;;;;;;-0.48;88.16;100453.13;5006566;28;20466;-67
2022/01/17 07:28:20;;;;;;;10.05;9.43;;;;;;;-0.36;87.42;100493.19;5010093;28;20030;-66
2022/01/17 07:30:46;;;;;;;9.05;8.55;;;;;;;1.74;82.39;100489.91;5011730;28;20040;-65
2022/01/17 07:33:11;;;;;;;9.43;8.82;;;;;;;8.99;52.90;100484.88;5012903;28;20032;-66
2022/01/17 07:35:37;;;;;;;8.93;8.40;;;;;;;6.88;53.50;100484.72;5010286;28;20497;-69
2022/01/17 07:38:04;;;;;;;7.70;7.30;;;;;;;2.19;67.15;100466.31;5012389;28;20096;-70
2022/01/17 07:40:29;;;;;;;8.40;7.90;;;;;;;0.87;74.56;100446.88;4995236;28;20028;-69
2022/01/17 07:42:55;;;;;;;9.00;8.50;;;;;;;1.50;74.14;100435.13;5001281;28;20017;-67
2022/01/17 07:45:21;;;;;;;9.35;8.85;;;;;;;1.58;72.04;100416.22;5010802;28;20029;-67
2022/01/17 07:50:22;;;;;;;9.63;9.13;;;;;;;1.70;69.12;100375.22;5011506;28;20056;-67
2022/01/17 07:52:48;;;;;;;9.18;8.68;;;;;;;2.15;68.06;100370.69;4993686;28;20100;-67
2022/01/17 07:55:15;;;;;;;8.95;8.45;;;;;;;2.22;67.89;100366.63;5012016;28;20084;-67
2022/01/17 07:57:44;;;;;;;10.70;10.00;;;;;;;1.98;69.14;100366.81;5014077;28;20040;-67
2022/01/17 08:00:13;;;;;;;9.13;8.63;;;;;;;1.70;68.42;100355.13;5011451;28;20034;-67
2022/01/17 08:02:38;;;;;;;9.23;8.73;;;;;;;1.68;68.93;100398.84;5011010;28;20477;-68
2022/01/17 08:05:04;;;;;;;8.95;8.45;;;;;;;1.63;68.00;100411.47;5011635;28;20041;-66
2022/01/17 08:07:31;;;;;;;9.68;9.07;;;;;;;1.73;67.34;100449.00;5011475;28;20630;-66
2022/01/17 08:09:57;;;;;;;9.75;9.15;;;;;;;1.54;66.77;100462.69;5010298;28;20030;-67
2022/01/17 08:12:22;;;;;;;8.98;8.48;;;;;;;1.76;65.36;100467.06;5012863;28;20022;-66
2022/01/17 08:14:48;;;;;;;9.02;8.52;;;;;;;1.97;64.67;100463.72;4977496;28;20385;-67
2022/01/17 08:17:13;;;;;;;8.90;8.40;;;;;;;2.19;63.33;100424.44;5011065;28;20050;-68
2022/01/17 08:19:40;;;;;;;9.27;8.77;;;;;;;2.66;61.67;100423.19;5011211;28;20021;-67
2022/01/17 08:22:14;;;;;;;9.63;9.02;;;;;;;3.11;59.59;100416.88;5010639;28;20405;-67
2022/01/17 08:24:39;;;;;;;8.00;7.60;;;;;;;4.21;55.18;100391.56;5011467;28;20045;-67
2022/01/17 08:27:05;;;;;;;8.90;8.40;;;;;;;9.18;42.97;100361.13;5011020;28;20728;-67
2022/01/17 08:29:34;;;;;;;8.30;7.88;;;;;;;11.27;36.38;100367.00;5011138;28;20029;-67
2022/01/17 08:32:04;;;;;;;8.00;7.60;;;;;;;12.43;34.71;100376.78;5026050;28;20037;-67
2022/01/17 08:34:30;;;;;;;7.45;7.05;;;;;;;7.79;41.49;100376.94;5011225;28;20072;-67
2022/01/17 08:36:57;;;;;;;7.85;7.45;;;;;;;6.03;44.91;100344.66;4993111;28;20452;-67
2022/01/17 08:39:24;;;;;;;8.27;7.85;;;;;;;5.35;46.40;100349.41;5011124;28;20041;-67
2022/01/17 08:41:51;;;;;;;8.95;8.45;;;;;;;5.03;46.91;100341.13;5010872;28;20018;-67
2022/01/17 08:44:19;;;;;;;9.10;8.60;;;;;;;4.22;48.45;100322.31;4993405;28;20034;-67
2022/01/17 08:46:45;;;;;;;9.48;8.98;;;;;;;4.07;49.79;100317.47;5010911;28;20045;-67
2022/01/17 08:49:11;;;;;;;9.32;8.85;;;;;;;4.14;49.86;100305.47;4993094;28;20040;-68
2022/01/17 08:51:39;;;;;;;10.35;9.75;;;;;;;3.93;50.14;100294.25;5011849;28;20038;-66
2022/01/17 08:54:06;;;;;;;9.18;8.68;;;;;;;3.86;51.30;100298.41;5011181;28;20860;-67
2022/01/17 08:56:32;;;;;;;8.73;8.30;;;;;;;3.86;52.30;100306.28;5011523;28;20026;-68
2022/01/17 08:59:02;;;;;;;10.40;9.80;;;;;;;3.86;52.96;100301.03;5019972;28;20049;-67
2022/01/17 09:01:28;;;;;;;8.68;8.25;;;;;;;3.82;53.26;100289.16;4996460;28;20030;-68
2022/01/17 09:03:54;;;;;;;9.50;8.98;;;;;;;3.72;53.90;100280.44;5006560;28;20052;-67
2022/01/17 09:06:21;;;;;;;8.85;8.38;;;;;;;3.76;54.21;100285.28;5014185;28;20083;-67
2022/01/17 09:08:46;;;;;;;8.85;8.35;;;;;;;3.80;54.04;100285.81;5014422;28;20493;-67
2022/01/17 09:11:12;;;;;;;8.20;7.80;;;;;;;3.85;54.47;100265.25;5014355;28;20022;-66
2022/01/17 09:13:37;;;;;;;9.10;8.60;;;;;;;3.79;54.83;100255.31;5014152;28;20093;-67
2022/01/17 09:16:03;;;;;;;8.50;8.10;;;;;;;4.08;53.76;100231.69;5015651;28;20034;-67
2022/01/17 09:18:29;;;;;;;9.10;8.60;;;;;;;4.14;52.49;100229.34;5015533;28;20185;-67
2022/01/17 09:20:54;;;;;;;10.18;9.57;;;;;;;4.51;52.55;100244.31;4999146;28;20397;-67
2022/01/17 09:23:21;;;;;;;8.60;8.15;;;;;;;4.41;52.40;100225.97;5015435;28;20037;-68
2022/01/17 09:25:49;;;;;;;8.43;8.02;;;;;;;4.39;53.05;100227.88;5013918;28;20065;-67
2022/01/17 09:28:15;;;;;;;8.93;8.43;;;;;;;4.26;53.12;100222.13;5013283;28;20037;-68
2022/01/17 09:30:40;;;;;;;8.35;7.95;;;;;;;4.17;54.37;100228.22;5013821;28;20030;-67
2022/01/17 09:33:06;;;;;;;8.73;8.27;;;;;;;3.95;53.34;100191.78;5015086;28;20033;-67
2022/01/17 09:35:32;;;;;;;9.38;8.88;;;;;;;3.92;53.92;100203.38;5013900;28;20079;-68
2022/01/17 09:37:58;;;;;;;9.10;8.60;;;;;;;4.02;53.90;100209.44;5013783;28;20022;-67
2022/01/17 09:40:26;;;;;;;9.00;8.50;;;;;;;4.10;53.77;100206.94;5030399;28;20033;-68
2022/01/17 09:42:53;;;;;;;8.65;8.23;;;;;;;4.19;53.82;100204.44;5013922;28;20111;-68
2022/01/17 09:45:21;;;;;;;9.93;9.32;;;;;;;4.36;53.99;100196.66;5014846;28;20029;-68
2022/01/17 09:47:47;;;;;;;8.82;8.32;;;;;;;4.29;53.73;100187.72;5014546;28;20508;-68
2022/01/17 09:50:20;;;;;;;8.60;8.20;;;;;;;4.44;53.37;100177.56;5014316;28;20554;-67
2022/01/17 09:52:53;;;;;;;8.35;7.95;;;;;;;4.71;51.46;100182.03;5013515;28;20034;-67
2022/01/17 09:55:23;;;;;;;8.30;7.90;;;;;;;4.58;50.97;100168.41;5013337;28;20184;-69
2022/01/17 09:58:03;;;;;;;8.73;8.23;;;;;;;4.91;51.11;100159.91;5025401;28;20029;-67
2022/01/17 10:00:35;;;;;;;8.90;8.40;;;;;;;5.21;49.56;100155.28;5018019;28;20109;-68
2022/01/17 10:03:05;;;;;;;8.80;8.30;;;;;;;5.28;49.18;100151.09;5001600;28;20058;-67
2022/01/17 10:05:35;;;;;;;8.07;7.68;;;;;;;5.52;49.01;100140.00;5011606;28;20052;-66
2022/01/17 10:08:06;;;;;;;9.85;9.25;;;;;;;5.73;48.02;100131.78;5012967;28;20124;-68
2022/01/17 10:10:57;;;;;;;9.07;8.57;;;;;;;5.82;48.36;100117.69;5013183;28;20029;-68
2022/01/17 10:13:34;;;;;;;9.65;9.05;;;;;;;5.69;48.98;100106.72;5012397;28;20026;-68
2022/01/17 10:16:19;;;;;;;9.27;8.77;;;;;;;5.72;49.29;100101.16;4999937;28;20500;-67
2022/01/17 10:18:54;;;;;;;8.25;7.85;;;;;;;5.78;48.94;100098.72;4995578;28;20033;-67
2022/01/17 10:21:47;;;;;;;8.30;7.90;;;;;;;5.75;49.26;100093.78;5012587;28;20033;-67
2022/01/17 10:35:09;;;;;;;8.98;8.48;;;;;;;5.98;49.45;100057.28;5012942;28;20451;-67
2022/01/17 10:37:34;;;;;;;8.25;7.85;;;;;;;5.94;49.86;100028.75;5012600;28;20030;-67
2022/01/17 10:40:12;;;;;;;8.38;7.97;;;;;;;5.86;49.96;100045.31;5013052;28;20492;-67
2022/01/17 10:42:45;;;;;;;8.60;8.20;;;;;;;5.94;49.74;100042.75;5028595;28;20113;-66
2022/01/17 10:45:14;;;;;;;9.02;8.52;;;;;;;6.05;49.41;100023.25;5012617;28;20030;-67
2022/01/17 10:47:43;;;;;;;9.98;9.38;;;;;;;6.26;49.09;100020.19;5012574;28;20026;-68
2022/01/17 10:50:13;;;;;;;9.05;8.55;;;;;;;6.38;49.33;100025.00;5012299;28;20045;-68
2022/01/17 10:52:45;;;;;;;9.15;8.65;;;;;;;6.46;49.13;100020.75;4994436;28;20026;-67
2022/01/17 10:55:20;;;;;;;8.23;7.82;;;;;;;6.34;49.59;100014.97;5013943;28;20030;-68
2022/01/17 10:57:49;;;;;;;8.45;8.05;;;;;;;6.34;48.98;100002.59;5015334;28;20568;-67
2022/01/17 11:00:27;;;;;;;9.13;8.63;;;;;;;6.36;49.30;99995.38;5012596;28;20029;-68
2022/01/17 11:02:58;;;;;;;8.43;8.02;;;;;;;6.32;49.37;99987.97;5008856;28;20518;-67
2022/01/17 11:05:27;;;;;;;8.30;7.90;;;;;;;6.26;50.38;99978.06;5012408;28;20113;-67
2022/01/17 11:07:55;;;;;;;9.02;8.52;;;;;;;6.34;49.96;99964.91;5014400;28;20392;-67
2022/01/17 11:10:27;;;;;;;8.50;8.10;;;;;;;6.37;49.43;99962.75;5012247;28;20029;-67
2022/01/17 11:12:54;;;;;;;8.50;8.10;;;;;;;6.53;50.24;99956.69;5011795;28;20026;-67
2022/01/17 11:15:23;;;;;;;8.07;7.68;;;;;;;6.63;49.37;99953.94;5013333;28;20040;-67
2022/01/17 11:17:56;;;;;;;8.10;7.70;;;;;;;6.63;49.29;99940.75;5012063;28;20040;-67
2022/01/17 11:20:25;;;;;;;8.25;7.85;;;;;;;6.66;48.84;99940.41;5011539;28;20384;-67
2022/01/17 11:22:54;;;;;;;8.20;7.80;;;;;;;6.75;49.09;99939.41;5012248;28;20022;-67
2022/01/17 11:25:23;;;;;;;8.85;8.35;;;;;;;6.88;47.83;99941.56;5011987;28;20057;-67
2022/01/17 11:27:50;;;;;;;10.45;9.75;;;;;;;6.91;48.40;99934.16;5012067;28;20084;-67
2022/01/17 11:30:16;;;;;;;8.73;8.27;;;;;;;7.10;47.37;99940.91;5013808;28;20041;-67
2022/01/17 11:32:46;;;;;;;9.45;8.95;;;;;;;7.26;47.33;99945.31;5011737;28;20033;-67
2022/01/17 11:35:13;;;;;;;9.32;8.82;;;;;;;7.10;47.22;99925.06;5012396;28;20108;-67
2022/01/17 11:37:42;;;;;;;8.45;8.05;;;;;;;7.18;47.04;99932.97;5012878;28;20030;-68
2022/01/17 11:40:09;;;;;;;8.80;8.30;;;;;;;7.13;47.09;99924.75;5011349;28;20084;-67
2022/01/17 11:42:43;;;;;;;9.18;8.68;;;;;;;7.06;46.70;99915.03;5011726;28;20033;-67
2022/01/17 11:45:24;;;;;;;9.00;8.50;;;;;;;7.19;46.41;99902.13;5012810;28;20059;-68
2022/01/17 11:48:09;;;;;;;9.10;8.60;;;;;;;7.18;45.91;99884.66;5027382;28;20030;-67
2022/01/17 11:50:42;;;;;;;8.38;7.97;;;;;;;7.24;45.79;99876.09;5014063;28;20036;-68
2022/01/17 11:53:11;;;;;;;8.65;8.23;;;;;;;7.09;45.33;99857.50;5007048;28;20557;-67